Time,TemperatureF,DewpointF,PressureIn,WindDirection,WindDirectionDegrees,WindSpeedMPH,WindSpeedGustMPH,Humidity,HourlyPrecipIn,Conditions,Clouds,dailyrainin,SoftwareType,DateUTC
2013-01-21 00:00:00,32.4,32.4,30.26,NE,45,0.7,3.0,100,0.00,,,0.00,NetBSD+Arduino,2013-01-21 08:00:00,
2013-01-21 00:06:00,32.2,32.2,30.25,North,0,0.4,4.5,100,0.00,,,0.00,NetBSD+Arduino,2013-01-21 08:06:00,
2013-01-21 00:11:00,32.2,32.2,30.25,NE,45,1.1,3.0,100,0.00,,,0.00,NetBSD+Arduino,2013-01-21 08:11:00,
2013-01-21 00:20:00,32.4,32.4,30.25,NE,45,2.6,3.0,100,0.00,,,0.00,NetBSD+Arduino,2013-01-21 08:20:00,
2013-01-21 00:25:00,32.5,32.5,30.26,NE,45,2.4,4.5,100,0.00,,,0.00,NetBSD+Arduino,2013-01-21 08:25:00,
2013-01-21 00:30:00,32.4,32.4,30.25,NE,45,1.1,4.5,100,0.00,,,0.00,NetBSD+Arduino,2013-01-21 08:30:00,
2013-01-21 00:40:00,32.3,32.3,30.25,East,90,1.1,4.5,100,0.00,,,0.00,NetBSD+Arduino,2013-01-21 08:40:00,
2013-01-21 00:45:00,32.2,32.2,30.25,East,90,3.9,4.5,100,0.00,,,0.00,NetBSD+Arduino,2013-01-21 08:45:00,
2013-01-21 00:50:00,32.2,32.2,30.26,North,0,2.4,4.5,100,0.00,,,0.00,NetBSD+Arduino,2013-01-21 08:50:00,
2013-01-21 00:55:00,32.2,32.2,30.25,North,0,1.5,4.5,100,0.00,,,0.00,NetBSD+Arduino,2013-01-21 08:55:00,
2013-01-21 01:00:00,32.2,32.2,30.26,NE,45,0.7,3.0,100,0.00,,,0.00,NetBSD+Arduino,2013-01-21 09:00:00,
2013-01-21 01:05:00,32.1,32.1,30.25,NE,45,3.7,4.5,100,0.00,,,0.00,NetBSD+Arduino,2013-01-21 09:05:00,
2013-01-21 01:10:00,32.0,32.0,30.25,NE,45,2.0,4.5,100,0.00,,,0.00,NetBSD+Arduino,2013-01-21 09:10:00,
2013-01-21 01:15:00,31.9,31.9,30.25,East,90,0.4,4.5,100,0.00,,,0.00,NetBSD+Arduino,2013-01-21 09:15:00,
2013-01-21 01:20:00,31.7,31.7,30.26,NE,45,2.2,4.5,100,0.00,,,0.00,NetBSD+Arduino,2013-01-21 09:20:00,
2013-01-21 01:25:00,31.5,31.5,30.26,NE,45,1.5,3.0,100,0.00,,,0.00,NetBSD+Arduino,2013-01-21 09:25:00,
2013-01-21 01:30:00,31.5,31.5,30.26,East,90,1.1,3.0,100,0.00,,,0.00,NetBSD+Arduino,2013-01-21 09:30:00,
2013-01-21 01:35:00,31.5,31.5,30.26,NE,45,1.2,4.5,100,0.00,,,0.00,NetBSD+Arduino,2013-01-21 09:35:00,
2013-01-21 01:40:00,31.4,31.4,30.25,East,90,0.5,4.5,100,0.00,,,0.00,NetBSD+Arduino,2013-01-21 09:40:00,
2013-01-21 01:50:00,31.2,31.2,30.26,East,90,0.7,3.0,100,0.00,,,0.00,NetBSD+Arduino,2013-01-21 09:50:00,
2013-01-21 01:55:00,31.3,31.3,30.26,NE,45,2.0,3.0,100,0.00,,,0.00,NetBSD+Arduino,2013-01-21 09:55:00,
2013-01-21 02:00:00,31.2,31.2,30.26,NE,45,0.0,3.0,100,0.00,,,0.00,NetBSD+Arduino,2013-01-21 10:00:00,
2013-01-21 02:05:00,31.2,31.2,30.26,NE,45,1.1,3.0,100,0.00,,,0.00,NetBSD+Arduino,2013-01-21 10:05:00,
2013-01-21 02:10:00,31.2,31.2,30.27,NE,45,1.5,3.0,100,0.00,,,0.00,NetBSD+Arduino,2013-01-21 10:10:00,
2013-01-21 02:15:00,31.2,31.2,30.27,East,90,0.5,3.0,100,0.00,,,0.00,NetBSD+Arduino,2013-01-21 10:15:00,
2013-01-21 02:20:00,31.2,31.2,30.27,NE,45,0.0,3.0,100,0.00,,,0.00,NetBSD+Arduino,2013-01-21 10:20:00,
2013-01-21 02:25:00,31.2,31.2,30.28,NE,45,0.7,1.5,100,0.00,,,0.00,NetBSD+Arduino,2013-01-21 10:25:00,
2013-01-21 02:30:00,31.2,31.2,30.28,NE,45,0.0,3.0,100,0.00,,,0.00,NetBSD+Arduino,2013-01-21 10:30:00,
2013-01-21 02:35:00,31.2,31.2,30.27,NE,45,3.5,4.5,100,0.00,,,0.00,NetBSD+Arduino,2013-01-21 10:35:00,
2013-01-21 02:40:00,31.1,31.1,30.27,NE,45,1.5,4.5,100,0.00,,,0.00,NetBSD+Arduino,2013-01-21 10:40:00,
2013-01-21 02:45:00,31.0,31.0,30.26,NE,45,1.5,3.0,100,0.00,,,0.00,NetBSD+Arduino,2013-01-21 10:45:00,
2013-01-21 02:55:00,31.1,31.1,30.27,East,90,0.0,1.5,100,0.00,,,0.00,NetBSD+Arduino,2013-01-21 10:55:00,
2013-01-21 03:00:00,31.0,31.0,30.26,East,90,0.0,1.5,100,0.00,,,0.00,NetBSD+Arduino,2013-01-21 11:00:00,
2013-01-21 03:10:00,31.2,31.2,30.26,NE,45,0.0,1.5,100,0.00,,,0.00,NetBSD+Arduino,2013-01-21 11:10:00,
2013-01-21 03:15:00,31.1,31.1,30.26,South,180,0.0,1.5,100,0.00,,,0.00,NetBSD+Arduino,2013-01-21 11:15:00,
2013-01-21 03:20:00,31.2,31.2,30.25,NE,45,0.0,3.0,100,0.00,,,0.00,NetBSD+Arduino,2013-01-21 11:20:00,
2013-01-21 03:26:00,31.2,31.2,30.25,NE,45,1.8,3.0,100,0.00,,,0.00,NetBSD+Arduino,2013-01-21 11:26:00,
2013-01-21 03:35:00,31.1,31.1,30.26,North,0,0.0,1.5,100,0.00,,,0.00,NetBSD+Arduino,2013-01-21 11:35:00,
2013-01-21 03:40:00,31.1,31.1,30.26,NE,45,0.7,3.0,100,0.00,,,0.00,NetBSD+Arduino,2013-01-21 11:40:00,
2013-01-21 03:45:00,31.2,31.2,30.26,East,90,1.1,3.0,100,0.00,,,0.00,NetBSD+Arduino,2013-01-21 11:45:00,
2013-01-21 03:55:00,31.1,31.1,30.25,South,180,1.5,4.5,100,0.00,,,0.00,NetBSD+Arduino,2013-01-21 11:55:00,
2013-01-21 04:00:00,31.0,31.0,30.25,East,90,3.0,4.5,100,0.00,,,0.00,NetBSD+Arduino,2013-01-21 12:00:00,
2013-01-21 04:06:00,31.0,31.0,30.25,South,180,1.1,3.0,100,0.00,,,0.00,NetBSD+Arduino,2013-01-21 12:06:00,
2013-01-21 04:15:00,30.8,30.8,30.25,SE,135,0.4,3.0,100,0.00,,,0.00,NetBSD+Arduino,2013-01-21 12:15:00,
2013-01-21 04:20:00,30.8,30.8,30.25,South,180,1.1,3.0,100,0.00,,,0.00,NetBSD+Arduino,2013-01-21 12:20:00,
2013-01-21 04:25:00,30.8,30.8,30.25,East,90,0.0,3.0,100,0.00,,,0.00,NetBSD+Arduino,2013-01-21 12:25:00,
2013-01-21 04:30:00,31.0,31.0,30.25,East,90,0.4,3.0,100,0.00,,,0.00,NetBSD+Arduino,2013-01-21 12:30:00,
2013-01-21 04:35:00,31.0,31.0,30.25,NE,45,0.4,3.0,100,0.00,,,0.00,NetBSD+Arduino,2013-01-21 12:35:00,
2013-01-21 04:40:00,30.8,30.8,30.25,East,90,2.6,4.5,100,0.00,,,0.00,NetBSD+Arduino,2013-01-21 12:40:00,
2013-01-21 04:45:00,30.7,30.7,30.25,East,90,3.4,4.5,100,0.00,,,0.00,NetBSD+Arduino,2013-01-21 12:45:00,
2013-01-21 04:50:00,30.5,30.5,30.24,East,90,3.0,4.5,100,0.00,,,0.00,NetBSD+Arduino,2013-01-21 12:50:00,
2013-01-21 04:56:00,30.6,30.6,30.24,East,90,2.6,4.5,100,0.00,,,0.00,NetBSD+Arduino,2013-01-21 12:56:00,
2013-01-21 05:05:00,30.5,30.5,30.24,SE,135,0.7,3.0,100,0.00,,,0.00,NetBSD+Arduino,2013-01-21 13:05:00,
2013-01-21 05:10:00,30.4,30.4,30.24,East,90,2.6,4.5,100,0.00,,,0.00,NetBSD+Arduino,2013-01-21 13:10:00,
2013-01-21 05:15:00,30.5,30.5,30.24,NE,45,1.0,4.5,100,0.00,,,0.00,NetBSD+Arduino,2013-01-21 13:15:00,
2013-01-21 05:20:00,30.5,30.5,30.23,South,180,0.3,1.5,100,0.00,,,0.00,NetBSD+Arduino,2013-01-21 13:20:00,
2013-01-21 05:25:00,30.6,30.6,30.23,South,180,0.0,3.0,100,0.00,,,0.00,NetBSD+Arduino,2013-01-21 13:25:00,
2013-01-21 05:30:00,30.5,30.5,30.23,East,90,0.4,3.0,100,0.00,,,0.00,NetBSD+Arduino,2013-01-21 13:30:00,
2013-01-21 05:35:00,30.5,30.5,30.23,SE,135,1.5,3.0,100,0.00,,,0.00,NetBSD+Arduino,2013-01-21 13:35:00,
2013-01-21 05:40:00,30.4,30.4,30.23,NE,45,0.9,3.0,100,0.00,,,0.00,NetBSD+Arduino,2013-01-21 13:40:00,
2013-01-21 05:45:00,30.4,30.4,30.23,East,90,1.9,3.0,100,0.00,,,0.00,NetBSD+Arduino,2013-01-21 13:45:00,
2013-01-21 05:55:00,30.5,30.5,30.22,East,90,0.7,3.0,100,0.00,,,0.00,NetBSD+Arduino,2013-01-21 13:55:00,
2013-01-21 06:00:00,30.5,30.5,30.22,East,90,1.1,3.0,100,0.00,,,0.00,NetBSD+Arduino,2013-01-21 14:00:00,
2013-01-21 06:05:00,30.7,30.7,30.21,East,90,1.0,3.0,100,0.00,,,0.00,NetBSD+Arduino,2013-01-21 14:05:00,
2013-01-21 06:10:00,30.8,30.8,30.21,East,90,0.0,3.0,100,0.00,,,0.00,NetBSD+Arduino,2013-01-21 14:10:00,
2013-01-21 06:15:00,30.7,30.7,30.20,East,90,0.7,3.0,100,0.00,,,0.00,NetBSD+Arduino,2013-01-21 14:15:00,
2013-01-21 06:20:00,30.7,30.7,30.20,East,90,2.5,4.5,100,0.00,,,0.00,NetBSD+Arduino,2013-01-21 14:20:00,
2013-01-21 06:25:00,30.7,30.7,30.20,NE,45,1.8,4.5,100,0.00,,,0.00,NetBSD+Arduino,2013-01-21 14:25:00,
2013-01-21 06:35:00,30.9,30.9,30.20,NE,45,1.5,3.0,100,0.00,,,0.00,NetBSD+Arduino,2013-01-21 14:35:00,
2013-01-21 06:40:00,30.8,30.8,30.20,East,90,0.0,3.0,100,0.00,,,0.00,NetBSD+Arduino,2013-01-21 14:40:00,
2013-01-21 06:45:00,30.8,30.8,30.20,NE,45,0.7,1.5,100,0.00,,,0.00,NetBSD+Arduino,2013-01-21 14:45:00,
2013-01-21 06:50:00,30.9,30.9,30.20,South,180,1.1,1.5,100,0.00,,,0.00,NetBSD+Arduino,2013-01-21 14:50:00,
2013-01-21 06:55:00,30.8,30.8,30.20,East,90,0.0,1.5,100,0.00,,,0.00,NetBSD+Arduino,2013-01-21 14:55:00,
2013-01-21 07:00:00,31.0,31.0,30.20,South,180,0.0,3.0,100,0.00,,,0.00,NetBSD+Arduino,2013-01-21 15:00:00,
2013-01-21 07:05:00,31.0,31.0,30.20,South,180,0.0,1.5,100,0.00,,,0.00,NetBSD+Arduino,2013-01-21 15:05:00,
2013-01-21 07:10:00,31.0,31.0,30.20,South,180,0.0,0.0,100,0.00,,,0.00,NetBSD+Arduino,2013-01-21 15:10:00,
2013-01-21 07:15:00,31.1,31.1,30.20,East,90,0.0,1.5,100,0.00,,,0.00,NetBSD+Arduino,2013-01-21 15:15:00,
2013-01-21 07:20:00,31.2,31.2,30.18,NE,45,0.7,3.0,100,0.00,,,0.00,NetBSD+Arduino,2013-01-21 15:20:00,
2013-01-21 07:25:00,31.1,31.1,30.18,South,180,0.0,4.5,100,0.00,,,0.00,NetBSD+Arduino,2013-01-21 15:25:00,
2013-01-21 07:30:00,31.2,31.2,30.19,East,90,0.7,1.5,100,0.00,,,0.00,NetBSD+Arduino,2013-01-21 15:30:00,
2013-01-21 07:35:00,31.1,31.1,30.19,North,0,0.0,3.0,100,0.00,,,0.00,NetBSD+Arduino,2013-01-21 15:35:00,
2013-01-21 07:40:00,31.2,31.2,30.19,East,90,0.4,3.0,100,0.00,,,0.00,NetBSD+Arduino,2013-01-21 15:40:00,
2013-01-21 07:45:00,31.2,31.2,30.19,NE,45,0.4,3.0,100,0.00,,,0.00,NetBSD+Arduino,2013-01-21 15:45:00,
2013-01-21 07:50:00,31.2,31.2,30.19,North,0,0.0,1.5,100,0.00,,,0.00,NetBSD+Arduino,2013-01-21 15:50:00,
2013-01-21 07:55:00,31.4,31.4,30.19,North,0,0.0,0.0,100,0.00,,,0.00,NetBSD+Arduino,2013-01-21 15:55:00,
2013-01-21 08:00:00,31.2,31.2,30.20,NE,45,0.7,1.5,100,0.00,,,0.00,NetBSD+Arduino,2013-01-21 16:00:00,
2013-01-21 08:10:00,31.2,31.2,30.20,SE,135,0.4,1.5,100,0.00,,,0.00,NetBSD+Arduino,2013-01-21 16:10:00,
2013-01-21 08:15:00,31.2,31.2,30.20,NE,45,0.0,1.5,100,0.00,,,0.00,NetBSD+Arduino,2013-01-21 16:15:00,
2013-01-21 08:20:00,31.4,31.4,30.20,South,180,0.0,1.5,100,0.00,,,0.00,NetBSD+Arduino,2013-01-21 16:20:00,
2013-01-21 08:25:00,31.4,31.4,30.20,East,90,0.7,3.0,100,0.00,,,0.00,NetBSD+Arduino,2013-01-21 16:25:00,
2013-01-21 08:30:00,31.2,31.2,30.20,North,0,1.9,3.0,100,0.00,,,0.00,NetBSD+Arduino,2013-01-21 16:30:00,
2013-01-21 08:35:00,31.4,31.4,30.20,NE,45,0.4,3.0,100,0.00,,,0.00,NetBSD+Arduino,2013-01-21 16:35:00,
2013-01-21 08:40:00,31.2,31.2,30.20,East,90,1.1,3.0,100,0.00,,,0.00,NetBSD+Arduino,2013-01-21 16:40:00,
2013-01-21 08:45:00,31.3,31.3,30.20,East,90,1.5,3.0,100,0.00,,,0.00,NetBSD+Arduino,2013-01-21 16:45:00,
2013-01-21 08:50:00,31.5,31.5,30.20,East,90,1.0,3.0,100,0.00,,,0.00,NetBSD+Arduino,2013-01-21 16:50:00,
2013-01-21 08:55:00,31.5,31.5,30.20,East,90,1.5,3.0,100,0.00,,,0.00,NetBSD+Arduino,2013-01-21 16:55:00,
2013-01-21 09:00:00,31.5,31.5,30.20,NE,45,0.0,3.0,100,0.00,,,0.00,NetBSD+Arduino,2013-01-21 17:00:00,
2013-01-21 09:05:00,31.7,31.7,30.20,East,90,0.0,3.0,100,0.00,,,0.00,NetBSD+Arduino,2013-01-21 17:05:00,
2013-01-21 09:10:00,31.8,31.8,30.20,NE,45,0.0,1.5,100,0.00,,,0.00,NetBSD+Arduino,2013-01-21 17:10:00,
2013-01-21 09:15:00,31.8,31.8,30.22,NE,45,0.0,1.5,100,0.00,,,0.00,NetBSD+Arduino,2013-01-21 17:15:00,
2013-01-21 09:20:00,31.7,31.7,30.22,NE,45,0.4,3.0,100,0.00,,,0.00,NetBSD+Arduino,2013-01-21 17:20:00,
2013-01-21 09:25:00,31.8,31.8,30.22,East,90,0.0,1.5,100,0.00,,,0.00,NetBSD+Arduino,2013-01-21 17:25:00,
2013-01-21 09:30:00,32.0,32.0,30.22,South,180,0.4,1.5,100,0.00,,,0.00,NetBSD+Arduino,2013-01-21 17:30:00,
2013-01-21 09:35:00,32.0,32.0,30.22,East,90,0.5,4.5,100,0.00,,,0.00,NetBSD+Arduino,2013-01-21 17:35:00,
2013-01-21 09:40:00,32.1,32.1,30.22,East,90,0.4,3.0,100,0.00,,,0.00,NetBSD+Arduino,2013-01-21 17:40:00,
2013-01-21 09:45:00,32.2,32.2,30.23,NE,45,0.7,3.0,100,0.00,,,0.00,NetBSD+Arduino,2013-01-21 17:45:00,
2013-01-21 09:50:00,32.0,32.0,30.23,East,90,1.1,3.0,100,0.00,,,0.00,NetBSD+Arduino,2013-01-21 17:50:00,
2013-01-21 09:55:00,32.3,32.3,30.22,East,90,1.0,3.0,100,0.00,,,0.00,NetBSD+Arduino,2013-01-21 17:55:00,
2013-01-21 10:00:00,32.4,32.4,30.22,East,90,1.1,3.0,100,0.00,,,0.00,NetBSD+Arduino,2013-01-21 18:00:00,
2013-01-21 10:05:00,32.6,32.6,30.22,SW,225,0.4,3.0,100,0.00,,,0.00,NetBSD+Arduino,2013-01-21 18:05:00,
2013-01-21 10:10:00,32.8,32.8,30.23,South,180,1.0,3.0,100,0.00,,,0.00,NetBSD+Arduino,2013-01-21 18:10:00,
2013-01-21 10:15:00,32.9,32.9,30.23,South,180,0.0,3.0,100,0.00,,,0.00,NetBSD+Arduino,2013-01-21 18:15:00,
2013-01-21 10:20:00,32.9,32.9,30.23,NE,45,0.0,3.0,100,0.00,,,0.00,NetBSD+Arduino,2013-01-21 18:20:00,
2013-01-21 10:25:00,32.7,32.7,30.23,SE,135,0.0,1.5,100,0.00,,,0.00,NetBSD+Arduino,2013-01-21 18:25:00,
2013-01-21 10:30:00,32.9,32.9,30.23,NE,45,1.1,1.5,100,0.00,,,0.00,NetBSD+Arduino,2013-01-21 18:30:00,
2013-01-21 10:35:00,33.0,33.0,30.23,East,90,1.1,3.0,100,0.00,,,0.00,NetBSD+Arduino,2013-01-21 18:35:00,
2013-01-21 10:45:00,33.3,33.3,30.23,South,180,0.0,1.5,100,0.00,,,0.00,NetBSD+Arduino,2013-01-21 18:45:00,
2013-01-21 10:50:00,33.5,33.5,30.23,East,90,0.7,3.0,100,0.00,,,0.00,NetBSD+Arduino,2013-01-21 18:50:00,
2013-01-21 10:55:00,33.4,33.4,30.23,South,180,1.5,4.5,100,0.00,,,0.00,NetBSD+Arduino,2013-01-21 18:55:00,
2013-01-21 11:00:00,33.8,33.8,30.23,SE,135,0.5,3.0,100,0.00,,,0.00,NetBSD+Arduino,2013-01-21 19:00:00,
2013-01-21 11:05:00,33.8,33.8,30.23,SE,135,0.6,1.5,100,0.00,,,0.00,NetBSD+Arduino,2013-01-21 19:05:00,
2013-01-21 11:10:00,33.8,33.8,30.23,East,90,0.4,1.5,100,0.00,,,0.00,NetBSD+Arduino,2013-01-21 19:10:00,
2013-01-21 11:15:00,34.0,34.0,30.23,North,0,0.0,1.5,100,0.00,,,0.00,NetBSD+Arduino,2013-01-21 19:15:00,
2013-01-21 11:20:00,34.2,34.2,30.22,NE,45,1.5,3.0,100,0.00,,,0.00,NetBSD+Arduino,2013-01-21 19:20:00,
2013-01-21 11:25:00,34.5,34.5,30.22,East,90,1.1,3.0,100,0.00,,,0.00,NetBSD+Arduino,2013-01-21 19:25:00,
2013-01-21 11:30:00,34.1,34.1,30.22,East,90,1.5,3.0,100,0.00,,,0.00,NetBSD+Arduino,2013-01-21 19:30:00,
2013-01-21 11:35:00,34.3,34.3,30.22,East,90,1.5,3.0,100,0.00,,,0.00,NetBSD+Arduino,2013-01-21 19:35:00,
2013-01-21 11:40:00,34.6,34.6,30.21,South,180,0.0,3.0,100,0.00,,,0.00,NetBSD+Arduino,2013-01-21 19:40:00,
2013-01-21 11:45:00,34.7,34.7,30.21,South,180,1.1,3.0,100,0.00,,,0.00,NetBSD+Arduino,2013-01-21 19:45:00,
2013-01-21 11:50:00,34.8,34.8,30.22,SW,225,0.0,3.0,100,0.00,,,0.00,NetBSD+Arduino,2013-01-21 19:50:00,
2013-01-21 11:55:00,35.1,35.1,30.22,NE,45,0.0,1.5,100,0.00,,,0.00,NetBSD+Arduino,2013-01-21 19:55:00,
2013-01-21 12:00:00,34.8,34.8,30.21,NE,45,1.5,1.5,100,0.00,,,0.00,NetBSD+Arduino,2013-01-21 20:00:00,
2013-01-21 12:05:00,35.1,35.1,30.20,South,180,0.0,1.5,100,0.00,,,0.00,NetBSD+Arduino,2013-01-21 20:05:00,
2013-01-21 12:10:00,35.1,35.1,30.20,South,180,1.9,3.0,100,0.00,,,0.00,NetBSD+Arduino,2013-01-21 20:10:00,
2013-01-21 12:15:00,34.9,34.9,30.20,NE,45,1.9,3.0,100,0.00,,,0.00,NetBSD+Arduino,2013-01-21 20:15:00,
2013-01-21 12:20:00,35.0,35.0,30.20,South,180,0.5,3.0,100,0.00,,,0.00,NetBSD+Arduino,2013-01-21 20:20:00,
2013-01-21 12:25:00,34.9,34.9,30.20,South,180,0.4,3.0,100,0.00,,,0.00,NetBSD+Arduino,2013-01-21 20:25:00,
2013-01-21 12:30:00,35.2,35.2,30.20,NE,45,1.1,1.5,100,0.00,,,0.00,NetBSD+Arduino,2013-01-21 20:30:00,
2013-01-21 12:35:00,35.3,35.3,30.20,NE,45,0.0,1.5,100,0.00,,,0.00,NetBSD+Arduino,2013-01-21 20:35:00,
2013-01-21 12:45:00,35.0,35.0,30.20,South,180,0.0,1.5,100,0.00,,,0.00,NetBSD+Arduino,2013-01-21 20:45:00,
2013-01-21 12:50:00,35.3,35.3,30.20,SE,135,1.0,1.5,100,0.00,,,0.00,NetBSD+Arduino,2013-01-21 20:50:00,
2013-01-21 13:00:00,35.8,35.8,30.19,South,180,1.1,3.0,100,0.00,,,0.00,NetBSD+Arduino,2013-01-21 21:00:00,
2013-01-21 13:05:00,35.8,35.8,30.19,South,180,0.0,1.5,100,0.00,,,0.00,NetBSD+Arduino,2013-01-21 21:05:00,
2013-01-21 13:10:00,35.6,35.6,30.19,NW,315,0.0,0.0,100,0.00,,,0.00,NetBSD+Arduino,2013-01-21 21:10:00,
2013-01-21 13:15:00,35.8,35.8,30.18,South,180,2.6,3.0,100,0.00,,,0.00,NetBSD+Arduino,2013-01-21 21:15:00,
2013-01-21 13:20:00,35.7,35.7,30.18,South,180,1.5,3.0,100,0.00,,,0.00,NetBSD+Arduino,2013-01-21 21:20:00,
2013-01-21 13:25:00,36.0,36.0,30.18,South,180,0.4,3.0,100,0.00,,,0.00,NetBSD+Arduino,2013-01-21 21:25:00,
2013-01-21 13:30:00,36.0,35.9,30.18,East,90,0.4,4.5,99,0.00,,,0.00,NetBSD+Arduino,2013-01-21 21:30:00,
2013-01-21 13:35:00,36.0,36.0,30.18,East,90,1.9,3.0,99,0.00,,,0.00,NetBSD+Arduino,2013-01-21 21:35:00,
2013-01-21 13:40:00,36.0,35.9,30.17,East,90,0.0,3.0,99,0.00,,,0.00,NetBSD+Arduino,2013-01-21 21:40:00,
2013-01-21 13:45:00,36.2,36.1,30.17,South,180,0.7,3.0,99,0.00,,,0.00,NetBSD+Arduino,2013-01-21 21:45:00,
2013-01-21 13:50:00,36.0,35.9,30.17,NE,45,1.0,3.0,99,0.00,,,0.00,NetBSD+Arduino,2013-01-21 21:50:00,
2013-01-21 14:00:00,36.1,36.0,30.17,South,180,0.0,3.0,99,0.00,,,0.00,NetBSD+Arduino,2013-01-21 22:00:00,
2013-01-21 14:05:00,35.8,35.7,30.17,East,90,0.0,3.0,99,0.00,,,0.00,NetBSD+Arduino,2013-01-21 22:05:00,
2013-01-21 14:10:00,35.8,35.7,30.17,South,180,1.0,3.0,99,0.00,,,0.00,NetBSD+Arduino,2013-01-21 22:10:00,
2013-01-21 14:20:00,36.1,36.0,30.16,East,90,1.5,3.0,99,0.00,,,0.00,NetBSD+Arduino,2013-01-21 22:20:00,
2013-01-21 14:25:00,36.4,36.3,30.16,South,180,0.0,3.0,99,0.00,,,0.00,NetBSD+Arduino,2013-01-21 22:25:00,
2013-01-21 14:30:00,36.1,35.9,30.16,South,180,0.0,3.0,99,0.00,,,0.00,NetBSD+Arduino,2013-01-21 22:30:00,
2013-01-21 14:40:00,36.3,36.1,30.16,SW,225,0.5,3.0,99,0.00,,,0.00,NetBSD+Arduino,2013-01-21 22:40:00,
2013-01-21 14:45:00,36.1,35.8,30.15,South,180,0.0,1.5,98,0.00,,,0.00,NetBSD+Arduino,2013-01-21 22:45:00,
2013-01-21 14:50:00,36.3,36.0,30.15,East,90,1.9,3.0,98,0.00,,,0.00,NetBSD+Arduino,2013-01-21 22:50:00,
2013-01-21 14:55:00,36.2,35.9,30.15,East,90,1.1,3.0,98,0.00,,,0.00,NetBSD+Arduino,2013-01-21 22:55:00,
2013-01-21 15:00:00,36.1,35.8,30.15,East,90,1.1,4.5,98,0.00,,,0.00,NetBSD+Arduino,2013-01-21 23:00:00,
2013-01-21 15:05:00,36.1,35.8,30.15,South,180,0.7,3.0,98,0.00,,,0.00,NetBSD+Arduino,2013-01-21 23:05:00,
2013-01-21 15:10:00,35.7,35.4,30.15,East,90,0.0,4.5,98,0.00,,,0.00,NetBSD+Arduino,2013-01-21 23:10:00,
2013-01-21 15:20:00,35.8,35.5,30.15,SW,225,2.6,3.0,98,0.00,,,0.00,NetBSD+Arduino,2013-01-21 23:20:00,
2013-01-21 15:25:00,35.7,35.4,30.15,North,0,3.0,4.5,98,0.00,,,0.00,NetBSD+Arduino,2013-01-21 23:25:00,
2013-01-21 15:35:00,35.6,35.2,30.15,West,270,0.0,3.0,98,0.00,,,0.00,NetBSD+Arduino,2013-01-21 23:35:00,
2013-01-21 15:40:00,35.6,35.2,30.15,West,270,0.0,1.5,98,0.00,,,0.00,NetBSD+Arduino,2013-01-21 23:40:00,
2013-01-21 15:45:00,35.7,35.4,30.15,South,180,0.0,1.5,98,0.00,,,0.00,NetBSD+Arduino,2013-01-21 23:45:00,
2013-01-21 15:50:00,35.6,35.3,30.15,SW,225,0.7,1.5,98,0.00,,,0.00,NetBSD+Arduino,2013-01-21 23:50:00,
2013-01-21 15:55:00,35.6,35.2,30.15,SW,225,0.0,3.0,98,0.00,,,0.00,NetBSD+Arduino,2013-01-21 23:55:00,
2013-01-21 16:00:00,35.6,35.2,30.14,North,0,1.5,3.0,98,0.00,,,0.00,NetBSD+Arduino,2013-01-22 00:00:00,
2013-01-21 16:10:00,35.7,35.3,30.14,SW,225,0.5,3.0,98,0.00,,,0.00,NetBSD+Arduino,2013-01-22 00:10:00,
2013-01-21 16:15:00,35.6,35.1,30.15,West,270,0.5,3.0,98,0.00,,,0.00,NetBSD+Arduino,2013-01-22 00:15:00,
2013-01-21 16:20:00,35.8,35.5,30.15,West,270,1.5,1.5,98,0.00,,,0.00,NetBSD+Arduino,2013-01-22 00:20:00,
2013-01-21 16:25:00,35.6,35.1,30.14,SW,225,0.0,1.5,98,0.00,,,0.00,NetBSD+Arduino,2013-01-22 00:25:00,
2013-01-21 16:30:00,35.6,35.1,30.15,South,180,2.5,4.5,98,0.00,,,0.00,NetBSD+Arduino,2013-01-22 00:30:00,
2013-01-21 16:35:00,35.6,35.0,30.15,South,180,0.0,4.5,97,0.00,,,0.00,NetBSD+Arduino,2013-01-22 00:35:00,
2013-01-21 16:40:00,35.6,35.0,30.15,SW,225,0.0,1.5,97,0.00,,,0.00,NetBSD+Arduino,2013-01-22 00:40:00,
2013-01-21 16:45:00,35.6,35.0,30.15,SW,225,2.5,3.0,97,0.00,,,0.00,NetBSD+Arduino,2013-01-22 00:45:00,
2013-01-21 16:50:00,35.6,35.1,30.15,South,180,0.5,3.0,98,0.00,,,0.00,NetBSD+Arduino,2013-01-22 00:50:00,
2013-01-21 16:55:00,35.4,34.9,30.15,South,180,0.7,3.0,97,0.00,,,0.00,NetBSD+Arduino,2013-01-22 00:55:00,
2013-01-21 17:00:00,35.3,34.8,30.15,South,180,0.4,3.0,97,0.00,,,0.00,NetBSD+Arduino,2013-01-22 01:00:00,
2013-01-21 17:05:00,35.3,34.8,30.15,East,90,0.7,1.5,98,0.00,,,0.00,NetBSD+Arduino,2013-01-22 01:05:00,
2013-01-21 17:10:00,35.1,34.8,30.15,East,90,0.0,1.5,98,0.00,,,0.00,NetBSD+Arduino,2013-01-22 01:10:00,
2013-01-21 17:15:00,35.1,34.8,30.14,East,90,1.1,3.0,98,0.00,,,0.00,NetBSD+Arduino,2013-01-22 01:15:00,
2013-01-21 17:20:00,35.3,35.0,30.15,SE,135,0.7,3.0,98,0.00,,,0.00,NetBSD+Arduino,2013-01-22 01:20:00,
2013-01-21 17:25:00,35.3,35.0,30.14,South,180,2.6,3.0,98,0.00,,,0.00,NetBSD+Arduino,2013-01-22 01:25:00,
2013-01-21 17:30:00,35.2,34.9,30.14,East,90,1.0,4.5,98,0.00,,,0.00,NetBSD+Arduino,2013-01-22 01:30:00,
2013-01-21 17:35:00,35.3,35.0,30.14,South,180,3.5,4.5,98,0.00,,,0.00,NetBSD+Arduino,2013-01-22 01:35:00,
2013-01-21 17:45:00,35.0,34.7,30.14,South,180,1.1,4.5,98,0.00,,,0.00,NetBSD+Arduino,2013-01-22 01:45:00,
2013-01-21 17:50:00,35.0,34.7,30.13,South,180,1.9,3.0,98,0.00,,,0.00,NetBSD+Arduino,2013-01-22 01:50:00,
2013-01-21 17:55:00,35.0,34.7,30.13,South,180,0.4,6.0,98,0.00,,,0.00,NetBSD+Arduino,2013-01-22 01:55:00,
2013-01-21 18:00:00,35.0,34.7,30.13,SE,135,2.2,4.5,98,0.00,,,0.00,NetBSD+Arduino,2013-01-22 02:00:00,
2013-01-21 18:05:00,34.8,34.5,30.13,South,180,2.6,6.0,98,0.00,,,0.00,NetBSD+Arduino,2013-01-22 02:05:00,
2013-01-21 18:10:00,34.7,34.3,30.13,SE,135,3.0,6.0,98,0.00,,,0.00,NetBSD+Arduino,2013-01-22 02:10:00,
2013-01-21 18:15:00,34.7,34.3,30.12,South,180,2.2,6.0,98,0.00,,,0.00,NetBSD+Arduino,2013-01-22 02:15:00,
2013-01-21 18:20:00,34.7,34.3,30.13,South,180,1.5,6.0,98,0.00,,,0.00,NetBSD+Arduino,2013-01-22 02:20:00,
2013-01-21 18:25:00,34.5,34.1,30.13,South,180,1.0,4.5,98,0.00,,,0.00,NetBSD+Arduino,2013-01-22 02:25:00,
2013-01-21 18:30:00,34.3,34.1,30.13,South,180,1.5,4.5,98,0.00,,,0.00,NetBSD+Arduino,2013-01-22 02:30:00,
2013-01-21 18:35:00,34.2,34.0,30.13,South,180,0.0,6.0,99,0.00,,,0.00,NetBSD+Arduino,2013-01-22 02:35:00,
2013-01-21 18:41:00,34.0,33.8,30.13,South,180,1.0,6.0,99,0.00,,,0.00,NetBSD+Arduino,2013-01-22 02:41:00,
2013-01-21 18:50:00,33.8,33.7,30.13,East,90,0.0,3.0,99,0.00,,,0.00,NetBSD+Arduino,2013-01-22 02:50:00,
2013-01-21 18:55:00,33.8,33.6,30.13,South,180,0.5,4.5,99,0.00,,,0.00,NetBSD+Arduino,2013-01-22 02:55:00,
2013-01-21 19:00:00,33.7,33.5,30.13,South,180,0.0,3.0,99,0.00,,,0.00,NetBSD+Arduino,2013-01-22 03:00:00,
2013-01-21 19:05:00,33.8,33.6,30.12,SE,135,0.0,3.0,99,0.00,,,0.00,NetBSD+Arduino,2013-01-22 03:05:00,
2013-01-21 19:10:00,33.7,33.5,30.12,East,90,1.5,4.5,99,0.00,,,0.00,NetBSD+Arduino,2013-01-22 03:10:00,
2013-01-21 19:15:00,33.6,33.5,30.12,South,180,2.5,4.5,99,0.00,,,0.00,NetBSD+Arduino,2013-01-22 03:15:00,
2013-01-21 19:20:00,33.5,33.4,30.12,South,180,0.5,4.5,99,0.00,,,0.00,NetBSD+Arduino,2013-01-22 03:20:00,
2013-01-21 19:25:00,33.2,33.2,30.13,South,180,0.4,4.5,99,0.00,,,0.00,NetBSD+Arduino,2013-01-22 03:25:00,
2013-01-21 19:30:00,33.3,33.3,30.13,SW,225,1.5,4.5,99,0.00,,,0.00,NetBSD+Arduino,2013-01-22 03:30:00,
2013-01-21 19:35:00,33.4,33.4,30.13,West,270,0.0,6.0,99,0.00,,,0.00,NetBSD+Arduino,2013-01-22 03:35:00,
2013-01-21 19:40:00,33.5,33.5,30.14,SW,225,0.0,1.5,99,0.00,,,0.00,NetBSD+Arduino,2013-01-22 03:40:00,
2013-01-21 19:50:00,33.6,33.6,30.13,South,180,0.0,1.5,99,0.00,,,0.00,NetBSD+Arduino,2013-01-22 03:50:00,
2013-01-21 19:55:00,33.7,33.7,30.14,South,180,1.9,3.0,99,0.00,,,0.00,NetBSD+Arduino,2013-01-22 03:55:00,
2013-01-21 20:00:00,33.7,33.7,30.13,South,180,0.0,4.5,99,0.00,,,0.00,NetBSD+Arduino,2013-01-22 04:00:00,
2013-01-21 20:05:00,33.7,33.7,30.13,South,180,2.0,3.0,99,0.00,,,0.00,NetBSD+Arduino,2013-01-22 04:05:00,
2013-01-21 20:14:00,33.8,33.8,30.14,SW,225,1.5,3.0,100,0.00,,,0.00,NetBSD+Arduino,2013-01-22 04:14:00,
2013-01-21 20:20:00,33.8,33.7,30.14,South,180,2.0,4.5,99,0.00,,,0.00,NetBSD+Arduino,2013-01-22 04:20:00,
2013-01-21 20:25:00,33.8,33.8,30.14,South,180,0.7,4.5,100,0.00,,,0.00,NetBSD+Arduino,2013-01-22 04:25:00,
2013-01-21 20:30:00,33.8,33.8,30.13,East,90,0.5,3.0,100,0.00,,,0.00,NetBSD+Arduino,2013-01-22 04:30:00,
2013-01-21 20:35:00,34.0,33.9,30.13,SE,135,0.5,3.0,99,0.00,,,0.00,NetBSD+Arduino,2013-01-22 04:35:00,
2013-01-21 20:40:00,34.0,33.9,30.13,South,180,2.2,3.0,99,0.00,,,0.00,NetBSD+Arduino,2013-01-22 04:40:00,
2013-01-21 20:45:00,34.0,33.9,30.14,South,180,0.0,3.0,99,0.00,,,0.00,NetBSD+Arduino,2013-01-22 04:45:00,
2013-01-21 20:50:00,34.0,34.0,30.14,South,180,3.7,6.0,100,0.00,,,0.00,NetBSD+Arduino,2013-01-22 04:50:00,
2013-01-21 20:55:00,34.0,34.0,30.14,SE,135,3.5,7.5,100,0.00,,,0.00,NetBSD+Arduino,2013-01-22 04:55:00,
2013-01-21 21:00:00,33.9,33.9,30.14,South,180,1.1,7.5,100,0.00,,,0.00,NetBSD+Arduino,2013-01-22 05:00:00,
2013-01-21 21:05:00,33.8,33.8,30.14,South,180,3.7,6.0,100,0.00,,,0.00,NetBSD+Arduino,2013-01-22 05:05:00,
2013-01-21 21:10:00,33.5,33.5,30.14,SE,135,2.0,4.5,99,0.00,,,0.00,NetBSD+Arduino,2013-01-22 05:10:00,
2013-01-21 21:20:00,33.6,33.6,30.14,SE,135,2.0,6.0,99,0.00,,,0.00,NetBSD+Arduino,2013-01-22 05:20:00,
2013-01-21 21:30:00,33.3,33.2,30.14,South,180,2.2,9.0,99,0.00,,,0.00,NetBSD+Arduino,2013-01-22 05:30:00,
2013-01-21 21:35:00,33.4,33.4,30.14,South,180,2.0,4.5,99,0.00,,,0.00,NetBSD+Arduino,2013-01-22 05:35:00,
2013-01-21 21:40:00,33.3,33.2,30.13,South,180,4.5,7.5,99,0.00,,,0.00,NetBSD+Arduino,2013-01-22 05:40:00,
2013-01-21 21:50:00,32.9,32.9,30.15,South,180,3.0,6.0,99,0.00,,,0.00,NetBSD+Arduino,2013-01-22 05:50:00,
2013-01-21 21:55:00,33.0,32.9,30.15,South,180,1.0,6.0,99,0.00,,,0.00,NetBSD+Arduino,2013-01-22 05:55:00,
2013-01-21 22:00:00,32.7,32.6,30.15,SE,135,1.5,4.5,99,0.00,,,0.00,NetBSD+Arduino,2013-01-22 06:00:00,
2013-01-21 22:05:00,32.6,32.6,30.14,South,180,3.7,6.0,99,0.00,,,0.00,NetBSD+Arduino,2013-01-22 06:05:00,
2013-01-21 22:15:00,32.7,32.6,30.15,South,180,2.0,4.5,99,0.00,,,0.00,NetBSD+Arduino,2013-01-22 06:15:00,
2013-01-21 22:20:00,32.6,32.6,30.14,SW,225,0.7,6.0,99,0.00,,,0.00,NetBSD+Arduino,2013-01-22 06:20:00,
2013-01-21 22:25:00,32.6,32.6,30.14,South,180,1.5,4.5,99,0.00,,,0.00,NetBSD+Arduino,2013-01-22 06:25:00,
2013-01-21 22:30:00,32.5,32.5,30.14,South,180,1.0,6.0,99,0.00,,,0.00,NetBSD+Arduino,2013-01-22 06:30:00,
2013-01-21 22:35:00,32.5,32.5,30.14,South,180,2.0,6.0,99,0.00,,,0.00,NetBSD+Arduino,2013-01-22 06:35:00,
2013-01-21 22:45:00,32.2,32.2,30.14,South,180,1.1,6.0,99,0.00,,,0.00,NetBSD+Arduino,2013-01-22 06:45:00,
2013-01-21 22:50:00,32.2,32.2,30.13,South,180,3.4,4.5,99,0.00,,,0.00,NetBSD+Arduino,2013-01-22 06:50:00,
2013-01-21 22:55:00,32.2,32.2,30.13,South,180,1.0,4.5,99,0.00,,,0.00,NetBSD+Arduino,2013-01-22 06:55:00,
2013-01-21 23:00:00,32.1,32.0,30.15,South,180,0.0,3.0,99,0.00,,,0.00,NetBSD+Arduino,2013-01-22 07:00:00,
2013-01-21 23:05:00,32.0,31.9,30.14,SE,135,1.5,4.5,99,0.00,,,0.00,NetBSD+Arduino,2013-01-22 07:05:00,
2013-01-21 23:15:00,32.1,32.0,30.13,South,180,3.0,3.0,99,0.00,,,0.00,NetBSD+Arduino,2013-01-22 07:15:00,
2013-01-21 23:20:00,32.0,31.9,30.14,South,180,0.0,3.0,99,0.00,,,0.00,NetBSD+Arduino,2013-01-22 07:20:00,
2013-01-21 23:25:00,31.9,31.8,30.13,South,180,1.0,3.0,99,0.00,,,0.00,NetBSD+Arduino,2013-01-22 07:25:00,
2013-01-21 23:30:00,31.7,31.6,30.13,NW,315,0.0,1.5,99,0.00,,,0.00,NetBSD+Arduino,2013-01-22 07:30:00,
2013-01-21 23:35:00,31.7,31.6,30.15,SW,225,0.0,1.5,99,0.00,,,0.00,NetBSD+Arduino,2013-01-22 07:35:00,
2013-01-21 23:40:00,31.7,31.6,30.13,East,90,0.0,1.5,99,0.00,,,0.00,NetBSD+Arduino,2013-01-22 07:40:00,
2013-01-21 23:45:00,31.6,31.5,30.13,South,180,0.0,1.5,99,0.00,,,0.00,NetBSD+Arduino,2013-01-22 07:45:00,
2013-01-21 23:50:00,31.5,31.4,30.13,South,180,0.5,3.0,99,0.00,,,0.00,NetBSD+Arduino,2013-01-22 07:50:00,
2013-01-21 23:55:00,31.4,31.3,30.13,South,180,0.0,1.5,99,0.00,,,0.00,NetBSD+Arduino,2013-01-22 07:55:00,